createdAt,value
2022-11-24T00:00:18.732Z,4.63
2022-11-24T00:02:45.133Z,3.80
2022-11-24T00:05:11.757Z,3.03
2022-11-24T00:07:38.182Z,2.42
2022-11-24T00:10:05.091Z,2.63
2022-11-24T00:12:31.391Z,3.67
2022-11-24T00:14:57.721Z,3.13
2022-11-24T00:17:24.431Z,1.98
2022-11-24T00:19:50.772Z,3.72
2022-11-24T00:22:17.251Z,3.72
2022-11-24T00:24:43.573Z,3.80
2022-11-24T00:27:09.885Z,6.53
2022-11-24T00:29:36.183Z,4.30
2022-11-24T00:32:02.641Z,6.68
2022-11-24T00:34:28.930Z,10.85
2022-11-24T00:36:55.314Z,6.70
2022-11-24T00:39:21.678Z,6.47
2022-11-24T00:41:48.292Z,4.25
2022-11-24T00:44:14.726Z,3.40
2022-11-24T00:46:41.226Z,5.57
2022-11-24T00:49:07.861Z,3.08
2022-11-24T00:51:34.242Z,2.08
2022-11-24T00:54:01.293Z,6.32
2022-11-24T00:56:29.531Z,2.70
2022-11-24T00:58:56.193Z,3.75
2022-11-24T01:01:25.102Z,2.47
2022-11-24T01:03:51.967Z,8.65
2022-11-24T01:06:24.024Z,3.65
2022-11-24T01:08:50.638Z,3.92
2022-11-24T01:11:23.285Z,4.78
2022-11-24T01:13:53.261Z,2.13
2022-11-24T01:16:31.316Z,5.88
2022-11-24T01:18:57.795Z,5.57
2022-11-24T01:21:24.550Z,4.53
2022-11-24T01:23:50.991Z,3.60
2022-11-24T01:26:20.415Z,3.78
2022-11-24T01:28:47.926Z,8.50
2022-11-24T01:31:15.410Z,4.18
2022-11-24T01:33:42.299Z,9.18
2022-11-24T01:36:08.665Z,2.40
2022-11-24T01:38:35.119Z,9.60
2022-11-24T01:41:10.118Z,6.07
2022-11-24T01:43:36.811Z,5.10
2022-11-24T01:46:32.420Z,5.47
2022-11-24T01:49:16.352Z,3.90
2022-11-24T01:51:53.522Z,4.20
2022-11-24T01:54:29.374Z,7.38
2022-11-24T01:57:02.252Z,9.65
2022-11-24T01:59:28.841Z,2.90
2022-11-24T02:01:57.050Z,2.88
2022-11-24T02:04:27.570Z,2.78
2022-11-24T02:06:56.157Z,2.08
2022-11-24T02:09:40.203Z,3.35
2022-11-24T02:12:07.043Z,4.72
2022-11-24T02:14:37.366Z,5.13
2022-11-24T02:17:04.004Z,2.15
2022-11-24T02:19:58.586Z,6.15
2022-11-24T02:22:36.146Z,7.90
2022-11-24T02:25:29.978Z,4.57
2022-11-24T02:27:59.042Z,2.60
2022-11-24T02:30:25.435Z,4.25
2022-11-24T02:32:52.872Z,6.97
2022-11-24T02:35:20.060Z,2.50
2022-11-24T02:37:46.703Z,5.75
2022-11-24T02:40:16.145Z,2.55
2022-11-24T02:42:45.823Z,4.93
2022-11-24T02:45:15.502Z,2.38
2022-11-24T02:47:41.893Z,6.35
2022-11-24T02:50:08.537Z,8.55
2022-11-24T02:52:35.234Z,11.93
2022-11-24T02:55:01.594Z,11.02
2022-11-24T02:57:27.965Z,2.45
2022-11-24T02:59:54.528Z,6.40
2022-11-24T03:02:20.984Z,4.88
2022-11-24T03:04:47.463Z,12.13
2022-11-24T03:07:13.804Z,15.27
2022-11-24T03:09:40.403Z,5.35
2022-11-24T03:12:07.115Z,2.08
2022-11-24T03:14:33.664Z,4.38
2022-11-24T03:17:00.319Z,6.28
2022-11-24T03:19:26.833Z,5.28
2022-11-24T03:21:53.256Z,2.90
2022-11-24T03:24:19.557Z,4.50
2022-11-24T03:26:45.895Z,18.05
2022-11-24T03:29:12.286Z,7.95
2022-11-24T03:31:38.687Z,12.40
2022-11-24T03:34:05.117Z,8.23
2022-11-24T03:36:34.194Z,3.55
2022-11-24T03:39:00.862Z,12.60
2022-11-24T03:41:27.188Z,4.50
2022-11-24T03:43:53.552Z,2.88
2022-11-24T03:46:19.933Z,7.60
2022-11-24T03:48:46.304Z,12.25
2022-11-24T03:51:12.803Z,13.00
2022-11-24T03:53:39.117Z,5.10
2022-11-24T03:56:05.613Z,6.80
2022-11-24T03:58:32.229Z,7.25
2022-11-24T04:00:58.708Z,14.32
2022-11-24T04:03:25.373Z,3.58
2022-11-24T04:05:51.753Z,4.15
2022-11-24T04:08:18.479Z,3.25
2022-11-24T04:10:45.159Z,5.03
2022-11-24T04:13:16.418Z,2.45
2022-11-24T04:15:43.635Z,7.13
2022-11-24T04:18:11.731Z,4.13
2022-11-24T04:20:39.314Z,10.85
2022-11-24T04:23:06.159Z,4.38
2022-11-24T04:25:32.555Z,14.57
2022-11-24T04:27:58.990Z,4.32
2022-11-24T04:30:27.371Z,13.45
2022-11-24T04:32:54.246Z,12.07
2022-11-24T04:35:21.126Z,4.97
2022-11-24T04:37:47.704Z,7.28
2022-11-24T04:40:14.823Z,11.40
2022-11-24T04:42:41.201Z,6.88
2022-11-24T04:45:07.953Z,6.28
2022-11-24T04:47:34.455Z,4.82
2022-11-24T04:50:00.754Z,12.35
2022-11-24T04:52:27.227Z,5.97
2022-11-24T04:54:53.590Z,5.63
2022-11-24T04:57:22.083Z,3.17
2022-11-24T04:59:49.781Z,4.05
2022-11-24T05:02:16.313Z,7.07
2022-11-24T05:04:43.103Z,8.35
2022-11-24T05:07:18.419Z,15.55
2022-11-24T05:09:58.917Z,3.20
2022-11-24T05:12:27.703Z,9.27
2022-11-24T05:14:54.064Z,4.22
2022-11-24T05:17:20.475Z,4.38
2022-11-24T05:19:46.744Z,9.65
2022-11-24T05:22:13.081Z,7.25
2022-11-24T05:24:39.695Z,8.20
2022-11-24T05:27:06.404Z,6.10
2022-11-24T05:29:33.005Z,5.40
2022-11-24T05:31:59.349Z,4.47
2022-11-24T05:34:26.304Z,9.00
2022-11-24T05:36:52.669Z,6.00
2022-11-24T05:39:19.872Z,3.03
2022-11-24T05:41:46.583Z,5.60
2022-11-24T05:44:13.130Z,5.72
2022-11-24T05:46:39.625Z,7.43
2022-11-24T05:49:05.953Z,3.70
2022-11-24T05:51:32.285Z,5.82
2022-11-24T05:53:58.697Z,8.38
2022-11-24T05:56:25.085Z,2.85
2022-11-24T05:58:51.431Z,3.53
2022-11-24T06:01:18.045Z,6.38
2022-11-24T06:03:44.516Z,5.57
2022-11-24T06:06:11.016Z,7.43
2022-11-24T06:08:37.364Z,3.67
2022-11-24T06:11:04.059Z,4.65
2022-11-24T06:13:30.415Z,5.80
2022-11-24T06:15:59.444Z,2.55
2022-11-24T06:18:25.864Z,5.25
2022-11-24T06:21:09.915Z,2.33
2022-11-24T06:23:39.054Z,11.80
2022-11-24T06:26:06.405Z,4.93
2022-11-24T06:28:32.989Z,2.85
2022-11-24T06:31:03.933Z,4.15
2022-11-24T06:33:34.723Z,17.08
2022-11-24T06:36:03.398Z,10.70
2022-11-24T06:38:30.274Z,6.18
2022-11-24T06:41:27.022Z,9.48
2022-11-24T06:43:53.732Z,4.88
2022-11-24T06:46:20.669Z,2.53
2022-11-24T06:48:47.346Z,11.13
2022-11-24T06:51:13.889Z,3.38
2022-11-24T06:53:41.435Z,6.57
2022-11-24T06:56:16.389Z,6.00
2022-11-24T07:01:20.186Z,3.80
2022-11-24T07:03:48.294Z,7.68
2022-11-24T07:06:15.834Z,5.43
2022-11-24T07:08:42.195Z,2.55
2022-11-24T07:11:11.457Z,9.00
2022-11-24T07:13:38.728Z,9.98
2022-11-24T07:16:20.534Z,3.38
2022-11-24T07:18:48.533Z,3.72
2022-11-24T07:21:15.502Z,1.85
2022-11-24T07:23:42.255Z,4.15
2022-11-24T07:26:10.047Z,7.63
2022-11-24T07:28:37.090Z,9.93
2022-11-24T07:31:11.391Z,6.35
2022-11-24T07:33:38.120Z,12.02
2022-11-24T07:36:07.137Z,6.38
2022-11-24T07:38:33.686Z,8.75
2022-11-24T07:41:05.427Z,16.02
2022-11-24T07:43:36.962Z,12.13
2022-11-24T07:46:05.086Z,23.50
2022-11-24T07:48:31.649Z,10.18
2022-11-24T07:51:02.324Z,4.10
2022-11-24T07:53:28.654Z,11.93
2022-11-24T07:55:56.961Z,18.55
2022-11-24T07:58:24.737Z,4.85
2022-11-24T08:00:53.277Z,7.80
2022-11-24T08:03:23.192Z,6.70
2022-11-24T08:08:47.215Z,7.25
2022-11-24T08:11:18.263Z,14.27
2022-11-24T08:13:45.061Z,7.20
2022-11-24T08:16:13.698Z,7.53
2022-11-24T08:18:41.077Z,8.43
2022-11-24T08:21:11.936Z,5.30
2022-11-24T08:23:38.925Z,12.27
2022-11-24T08:26:12.009Z,6.88
2022-11-24T08:28:38.456Z,3.67
2022-11-24T08:31:08.429Z,14.82
2022-11-24T08:33:35.685Z,13.68
2022-11-24T08:36:07.741Z,6.63
2022-11-24T08:38:34.591Z,4.60
2022-11-24T08:41:03.895Z,8.18
2022-11-24T08:43:31.214Z,9.27
2022-11-24T08:46:06.619Z,10.45
2022-11-24T08:51:10.054Z,6.07
2022-11-24T08:53:36.516Z,17.08
2022-11-24T08:56:08.626Z,8.27
2022-11-24T08:58:36.229Z,3.08
2022-11-24T09:01:16.686Z,6.43
2022-11-24T09:03:49.932Z,13.45
2022-11-24T09:06:25.617Z,8.90
2022-11-24T09:08:55.305Z,9.98
2022-11-24T09:11:22.397Z,7.72
2022-11-24T09:13:49.139Z,6.72
2022-11-24T09:16:18.588Z,4.85
2022-11-24T09:18:45.801Z,6.57
2022-11-24T09:21:21.223Z,8.82
2022-11-24T09:26:27.330Z,3.47
2022-11-24T09:28:55.409Z,1.90
2022-11-24T09:31:27.628Z,6.65
2022-11-24T09:33:54.861Z,7.10
2022-11-24T09:36:22.233Z,6.03
2022-11-24T09:38:48.584Z,8.85
2022-11-24T09:41:14.928Z,4.63
2022-11-24T09:43:50.173Z,17.17
2022-11-24T09:46:40.337Z,11.20
2022-11-24T09:49:15.319Z,6.65
2022-11-24T09:51:48.283Z,4.07
2022-11-24T09:54:22.915Z,6.32
2022-11-24T09:56:49.869Z,7.68
2022-11-24T09:59:19.947Z,2.92
2022-11-24T10:01:48.386Z,2.47
2022-11-24T10:04:25.394Z,8.85
2022-11-24T10:07:22.900Z,7.68
2022-11-24T10:10:13.751Z,6.63
2022-11-24T10:13:05.122Z,10.55
2022-11-24T10:15:46.483Z,6.43
2022-11-24T10:18:22.497Z,9.65
2022-11-24T10:21:01.154Z,13.27
2022-11-24T10:23:44.063Z,5.18
2022-11-24T10:26:31.354Z,5.45
2022-11-24T10:28:57.739Z,16.30
2022-11-24T10:31:38.189Z,8.20
2022-11-24T10:34:33.580Z,6.18
2022-11-24T10:37:12.223Z,9.23
2022-11-24T10:39:58.559Z,9.50
2022-11-24T10:42:32.249Z,2.97
2022-11-24T10:45:10.954Z,10.18
2022-11-24T10:47:38.254Z,4.05
2022-11-24T10:50:18.876Z,7.82
2022-11-24T10:52:51.178Z,7.35
2022-11-24T10:55:17.724Z,3.13
2022-11-24T10:57:44.196Z,5.60
2022-11-24T11:00:19.807Z,12.48
2022-11-24T11:02:51.664Z,7.05
2022-11-24T11:05:38.485Z,5.00
2022-11-24T11:08:13.829Z,2.15
2022-11-24T11:10:42.327Z,2.95
2022-11-24T11:13:23.313Z,4.47
2022-11-24T11:15:50.174Z,4.90
2022-11-24T11:18:18.539Z,8.85
2022-11-24T11:20:57.005Z,4.10
2022-11-24T11:23:30.192Z,9.18
2022-11-24T11:26:18.927Z,4.60
2022-11-24T11:35:02.985Z,5.32
2022-11-24T11:37:32.737Z,9.73
2022-11-24T11:40:00.372Z,5.43
2022-11-24T11:43:00.905Z,4.30
2022-11-24T11:45:31.611Z,4.50
2022-11-24T11:48:05.613Z,4.97
2022-11-24T11:51:14.870Z,2.33
2022-11-24T11:53:37.168Z,1.95
2022-11-24T11:56:21.016Z,9.52
2022-11-24T11:58:47.285Z,4.30
2022-11-24T12:01:44.372Z,1.08
2022-11-24T12:04:31.995Z,3.75
2022-11-24T12:07:37.687Z,11.80
2022-11-24T12:10:24.256Z,4.15
2022-11-24T12:13:09.267Z,4.03
2022-11-24T12:15:57.700Z,3.47
2022-11-24T12:18:57.765Z,1.50
2022-11-24T12:22:03.352Z,1.08
2022-11-24T12:24:35.699Z,1.20
2022-11-24T12:27:20.942Z,1.77
2022-11-24T12:30:02.542Z,2.42
2022-11-24T12:32:56.005Z,3.38
2022-11-24T12:35:25.576Z,5.00
2022-11-24T12:38:09.185Z,0.73
2022-11-24T12:41:01.963Z,0.40
2022-11-24T12:43:40.416Z,0.77
2022-11-24T12:46:20.437Z,1.73
2022-11-24T12:49:15.447Z,2.92
2022-11-24T12:51:46.592Z,1.48
2022-11-24T12:54:15.781Z,0.68
2022-11-24T12:56:58.834Z,6.50
2022-11-24T12:59:31.171Z,1.75
2022-11-24T13:02:28.835Z,9.18
2022-11-24T13:05:13.044Z,0.60
2022-11-24T13:07:45.216Z,2.15
2022-11-24T13:10:46.547Z,3.03
2022-11-24T13:13:12.295Z,1.00
2022-11-24T13:18:52.962Z,1.58
2022-11-24T13:21:47.747Z,4.47
2022-11-24T13:24:17.651Z,4.68
2022-11-24T13:26:47.646Z,2.20
2022-11-24T13:29:28.944Z,4.40
2022-11-24T13:32:15.847Z,2.10
2022-11-24T13:34:42.112Z,3.95
2022-11-24T13:37:31.962Z,4.38
2022-11-24T13:40:01.885Z,2.55
2022-11-24T13:42:42.268Z,2.83
2022-11-24T13:45:39.328Z,7.22
2022-11-24T13:48:21.854Z,4.03
2022-11-24T13:50:52.036Z,2.90
2022-11-24T13:53:40.686Z,6.07
2022-11-24T13:56:23.766Z,8.20
2022-11-24T13:58:59.918Z,1.40
2022-11-24T14:01:28.862Z,6.30
2022-11-24T14:04:33.125Z,2.72
2022-11-24T14:07:09.031Z,6.70
2022-11-24T14:09:47.544Z,1.50
2022-11-24T14:12:15.903Z,4.15
2022-11-24T14:14:43.416Z,1.73
2022-11-24T14:17:28.798Z,1.33
2022-11-24T14:19:57.013Z,2.85
2022-11-24T14:22:31.405Z,2.08
2022-11-24T14:24:59.788Z,7.43
2022-11-24T14:27:37.659Z,3.13
2022-11-24T14:30:20.065Z,7.88
2022-11-24T14:33:02.477Z,0.82
2022-11-24T14:35:31.966Z,1.42
2022-11-24T14:38:00.996Z,1.23
2022-11-24T14:40:46.484Z,1.08
2022-11-24T14:43:30.942Z,2.60
2022-11-24T14:46:09.388Z,2.25
2022-11-24T14:48:37.898Z,3.45
2022-11-24T14:51:08.674Z,2.10
2022-11-24T14:53:35.599Z,5.38
2022-11-24T14:56:24.150Z,10.23
2022-11-24T14:58:50.638Z,2.80
2022-11-24T15:01:22.195Z,2.03
2022-11-24T15:04:17.878Z,2.67
2022-11-24T15:07:24.288Z,8.18
2022-11-24T15:09:53.822Z,1.40
2022-11-24T15:12:28.253Z,2.28
2022-11-24T15:15:14.916Z,0.70
2022-11-24T15:17:49.302Z,1.77
2022-11-24T15:20:45.682Z,3.95
2022-11-24T15:25:45.075Z,6.32
2022-11-24T15:28:11.631Z,6.85
2022-11-24T15:30:38.609Z,2.92
2022-11-24T15:33:14.115Z,3.28
2022-11-24T15:38:06.852Z,1.13
2022-11-24T15:40:33.418Z,3.47
2022-11-24T15:43:05.037Z,2.97
2022-11-24T15:45:34.309Z,2.88
2022-11-24T15:48:00.695Z,1.65
2022-11-24T15:50:27.017Z,3.60
2022-11-24T15:52:53.705Z,2.17
2022-11-24T15:55:21.964Z,2.30
2022-11-24T15:57:48.700Z,1.67
2022-11-24T16:00:17.046Z,3.45
2022-11-24T16:02:43.453Z,2.17
2022-11-24T16:05:11.531Z,5.75
2022-11-24T16:07:38.301Z,2.85
2022-11-24T16:10:07.316Z,3.38
2022-11-24T16:12:33.631Z,7.40
2022-11-24T16:14:59.927Z,4.63
2022-11-24T16:17:26.788Z,0.82
2022-11-24T16:20:00.213Z,2.25
2022-11-24T16:22:27.258Z,6.65
2022-11-24T16:24:53.589Z,3.15
2022-11-24T16:27:19.880Z,4.72
2022-11-24T16:29:46.386Z,4.00
2022-11-24T16:32:12.754Z,3.53
2022-11-24T16:34:39.594Z,2.28
2022-11-24T16:37:05.922Z,4.40
2022-11-24T16:39:32.299Z,4.63
2022-11-24T16:41:58.631Z,5.40
2022-11-24T16:44:25.008Z,5.68
2022-11-24T16:46:51.380Z,5.50
2022-11-24T16:49:17.873Z,10.18
2022-11-24T16:51:44.296Z,2.78
2022-11-24T16:54:10.602Z,3.88
2022-11-24T16:56:37.173Z,4.13
2022-11-24T16:59:03.633Z,1.95
2022-11-24T17:01:30.160Z,2.53
2022-11-24T17:03:56.540Z,3.25
2022-11-24T17:06:23.108Z,4.40
2022-11-24T17:08:49.503Z,3.00
2022-11-24T17:11:18.606Z,1.38
2022-11-24T17:13:45.948Z,3.20
2022-11-24T17:16:17.741Z,5.05
2022-11-24T17:18:44.815Z,3.05
2022-11-24T17:21:17.274Z,3.75
2022-11-24T17:23:44.363Z,7.50
2022-11-24T17:26:13.418Z,3.90
2022-11-24T17:28:40.264Z,3.70
2022-11-24T17:31:30.656Z,3.83
2022-11-24T17:33:58.203Z,2.95
2022-11-24T17:36:25.554Z,3.17
2022-11-24T17:38:52.645Z,8.52
2022-11-24T17:41:20.233Z,5.05
2022-11-24T17:43:54.882Z,4.75
2022-11-24T17:46:21.643Z,7.35
2022-11-24T17:48:48.026Z,8.75
2022-11-24T17:51:19.633Z,5.57
2022-11-24T17:53:48.250Z,7.50
2022-11-24T17:56:20.013Z,3.25
2022-11-24T17:58:46.680Z,3.80
2022-11-24T18:01:13.937Z,12.45
2022-11-24T18:03:41.286Z,3.72
2022-11-24T18:06:12.920Z,5.45
2022-11-24T18:08:44.667Z,4.93
2022-11-24T18:11:13.727Z,8.55
2022-11-24T18:13:56.691Z,4.47
2022-11-24T18:16:26.593Z,4.75
2022-11-24T18:19:07.967Z,4.75
2022-11-24T18:21:35.137Z,4.35
2022-11-24T18:24:01.762Z,8.02
2022-11-24T18:26:28.099Z,2.67
2022-11-24T18:28:54.514Z,9.05
2022-11-24T18:31:20.895Z,9.20
2022-11-24T18:33:47.431Z,11.48
2022-11-24T18:36:17.375Z,8.45
2022-11-24T18:38:43.779Z,4.20
2022-11-24T18:41:11.802Z,5.85
2022-11-24T18:43:38.191Z,3.40
2022-11-24T18:46:12.023Z,5.60
2022-11-24T18:48:38.711Z,5.82
2022-11-24T18:51:05.331Z,5.43
2022-11-24T18:53:31.707Z,5.53
2022-11-24T18:55:59.034Z,7.82
2022-11-24T18:58:26.498Z,6.63
2022-11-24T19:00:54.480Z,6.55
2022-11-24T19:03:20.922Z,8.13
2022-11-24T19:05:47.334Z,5.68
2022-11-24T19:08:13.766Z,5.43
2022-11-24T19:10:40.334Z,6.15
2022-11-24T19:13:06.888Z,4.53
2022-11-24T19:15:34.773Z,5.53
2022-11-24T19:18:02.142Z,7.38
2022-11-24T19:20:28.836Z,4.28
2022-11-24T19:22:55.297Z,5.88
2022-11-24T19:25:21.725Z,8.20
2022-11-24T19:27:48.125Z,7.78
2022-11-24T19:30:16.534Z,9.45
2022-11-24T19:32:43.088Z,3.65
2022-11-24T19:35:09.608Z,10.65
2022-11-24T19:37:35.996Z,4.32
2022-11-24T19:40:02.906Z,7.30
2022-11-24T19:42:29.273Z,6.47
2022-11-24T19:44:56.726Z,5.35
2022-11-24T19:47:23.319Z,5.60
2022-11-24T19:49:49.613Z,6.05
2022-11-24T19:52:16.316Z,8.52
2022-11-24T19:54:42.729Z,10.80
2022-11-24T19:57:09.041Z,13.60
2022-11-24T19:59:35.460Z,12.60
2022-11-24T20:02:01.881Z,15.85
2022-11-24T20:04:28.584Z,23.30
2022-11-24T20:06:55.117Z,29.48
2022-11-24T20:09:21.457Z,44.45
2022-11-24T20:11:48.136Z,26.02
2022-11-24T20:14:16.290Z,30.83
2022-11-24T20:16:42.710Z,25.45
2022-11-24T20:19:13.625Z,28.08
2022-11-24T20:21:41.244Z,33.20
2022-11-24T20:24:13.513Z,17.75
2022-11-24T20:26:52.443Z,18.77
2022-11-24T20:29:19.291Z,13.98
2022-11-24T20:31:49.277Z,19.13
2022-11-24T20:34:16.263Z,22.27
2022-11-24T20:36:45.078Z,14.63
2022-11-24T20:39:16.805Z,12.55
2022-11-24T20:41:43.946Z,24.80
2022-11-24T20:44:13.614Z,12.60
2022-11-24T20:46:41.486Z,41.92
2022-11-24T20:49:10.796Z,42.35
2022-11-24T20:51:38.963Z,21.50
2022-11-24T20:54:08.228Z,50.47
2022-11-24T20:56:37.935Z,23.48
2022-11-24T20:59:04.561Z,25.38
2022-11-24T21:01:34.493Z,21.50
2022-11-24T21:04:02.479Z,27.35
2022-11-24T21:06:29.269Z,9.05
2022-11-24T21:09:02.029Z,6.25
2022-11-24T21:11:30.355Z,23.27
2022-11-24T21:13:58.445Z,23.27
2022-11-24T21:16:27.664Z,13.73
2022-11-24T21:19:03.391Z,7.60
2022-11-24T21:21:32.113Z,15.52
2022-11-24T21:23:58.872Z,10.55
2022-11-24T21:26:25.589Z,9.77
2022-11-24T21:28:51.973Z,9.88
2022-11-24T21:31:21.031Z,14.10
2022-11-24T21:33:49.795Z,24.58
2022-11-24T21:36:18.975Z,11.80
2022-11-24T21:38:54.064Z,13.65
2022-11-24T21:41:21.275Z,10.63
2022-11-24T21:43:47.949Z,7.80
2022-11-24T21:46:14.703Z,10.57
2022-11-24T21:48:42.036Z,8.77
2022-11-24T21:51:12.799Z,32.70
2022-11-24T21:53:39.512Z,20.52
2022-11-24T21:56:11.650Z,14.02
2022-11-24T21:58:38.772Z,11.63
2022-11-24T22:01:07.999Z,21.58
2022-11-24T22:03:34.878Z,61.63
2022-11-24T22:06:02.019Z,41.13
2022-11-24T22:08:30.102Z,27.95
2022-11-24T22:11:23.488Z,31.85
2022-11-24T22:13:50.813Z,24.95
2022-11-24T22:16:22.799Z,17.08
2022-11-24T22:18:50.333Z,11.27
2022-11-24T22:21:19.527Z,14.63
2022-11-24T22:23:46.225Z,11.73
2022-11-24T22:26:15.899Z,26.55
2022-11-24T22:28:43.868Z,22.30
2022-11-24T22:31:15.544Z,28.95
2022-11-24T22:33:42.015Z,17.00
2022-11-24T22:36:10.053Z,14.48
2022-11-24T22:38:36.991Z,14.63
2022-11-24T22:41:12.168Z,10.82
2022-11-24T22:43:40.332Z,8.68
2022-11-24T22:46:17.788Z,9.55
2022-11-24T22:48:45.596Z,7.45
2022-11-24T22:51:23.681Z,14.10
2022-11-24T22:54:01.339Z,20.20
2022-11-24T22:56:28.377Z,12.93
2022-11-24T22:58:54.812Z,14.45
2022-11-24T23:01:24.881Z,7.70
2022-11-24T23:03:52.634Z,9.02
2022-11-24T23:06:21.799Z,14.63
2022-11-24T23:08:48.974Z,17.13
2022-11-24T23:11:18.815Z,20.83
2022-11-24T23:13:46.017Z,15.77
2022-11-24T23:16:17.839Z,33.97
2022-11-24T23:18:48.765Z,25.95
2022-11-24T23:21:20.064Z,21.98
2022-11-24T23:23:47.705Z,20.08
2022-11-24T23:26:17.124Z,14.43
2022-11-24T23:28:43.954Z,8.68
2022-11-24T23:31:13.394Z,18.40
2022-11-24T23:33:40.417Z,12.93
2022-11-24T23:36:10.402Z,14.45
2022-11-24T23:38:37.379Z,7.85
2022-11-24T23:41:06.838Z,11.85
2022-11-24T23:43:34.507Z,6.85
2022-11-24T23:46:12.986Z,13.07
2022-11-24T23:48:40.689Z,8.95
2022-11-24T23:51:17.005Z,10.77
2022-11-24T23:53:44.124Z,9.93
2022-11-24T23:56:12.477Z,8.80
2022-11-24T23:58:39.210Z,10.75
